sensor_id;sensor_type;location;lat;lon;timestamp;pressure;altitude;pressure_sealevel;temperature
34807;BMP180;18310;55.586;12.286;2022-10-16T00:01:39;100652.00;;;22.70
34807;BMP180;18310;55.586;12.286;2022-10-16T00:04:43;100665.00;;;22.60
34807;BMP180;18310;55.586;12.286;2022-10-16T00:07:46;100672.00;;;22.60
34807;BMP180;18310;55.586;12.286;2022-10-16T00:10:51;100670.00;;;22.50
34807;BMP180;18310;55.586;12.286;2022-10-16T00:13:58;100671.00;;;22.50
34807;BMP180;18310;55.586;12.286;2022-10-16T00:17:01;100681.00;;;22.40
34807;BMP180;18310;55.586;12.286;2022-10-16T00:20:06;100689.00;;;22.30
34807;BMP180;18310;55.586;12.286;2022-10-16T00:23:10;100693.00;;;22.30
34807;BMP180;18310;55.586;12.286;2022-10-16T00:26:19;100700.00;;;22.30
34807;BMP180;18310;55.586;12.286;2022-10-16T00:29:22;100699.00;;;22.20
34807;BMP180;18310;55.586;12.286;2022-10-16T00:32:25;100707.00;;;22.20
34807;BMP180;18310;55.586;12.286;2022-10-16T00:35:31;100710.00;;;22.30
34807;BMP180;18310;55.586;12.286;2022-10-16T00:38:34;100717.00;;;22.30
34807;BMP180;18310;55.586;12.286;2022-10-16T00:41:42;100718.00;;;22.40
34807;BMP180;18310;55.586;12.286;2022-10-16T00:44:49;100725.00;;;22.40
34807;BMP180;18310;55.586;12.286;2022-10-16T00:47:56;100726.00;;;22.40
34807;BMP180;18310;55.586;12.286;2022-10-16T00:51:00;100712.00;;;22.40
34807;BMP180;18310;55.586;12.286;2022-10-16T00:54:10;100728.00;;;22.40
34807;BMP180;18310;55.586;12.286;2022-10-16T00:57:18;100713.00;;;22.40
34807;BMP180;18310;55.586;12.286;2022-10-16T01:00:26;100717.00;;;22.40
34807;BMP180;18310;55.586;12.286;2022-10-16T01:03:33;100713.00;;;22.30
34807;BMP180;18310;55.586;12.286;2022-10-16T01:06:54;100704.00;;;22.30
34807;BMP180;18310;55.586;12.286;2022-10-16T01:10:14;100709.00;;;22.20
34807;BMP180;18310;55.586;12.286;2022-10-16T01:13:27;100713.00;;;22.20
34807;BMP180;18310;55.586;12.286;2022-10-16T01:16:40;100718.00;;;22.10
34807;BMP180;18310;55.586;12.286;2022-10-16T01:20:10;100726.00;;;22.10
34807;BMP180;18310;55.586;12.286;2022-10-16T01:23:36;100723.00;;;22.00
34807;BMP180;18310;55.586;12.286;2022-10-16T01:27:04;100728.00;;;21.90
34807;BMP180;18310;55.586;12.286;2022-10-16T01:30:14;100731.00;;;21.90
34807;BMP180;18310;55.586;12.286;2022-10-16T01:33:22;100743.00;;;21.80
34807;BMP180;18310;55.586;12.286;2022-10-16T01:36:37;100732.00;;;21.80
34807;BMP180;18310;55.586;12.286;2022-10-16T01:39:46;100729.00;;;21.80
34807;BMP180;18310;55.586;12.286;2022-10-16T01:42:59;100737.00;;;21.70
34807;BMP180;18310;55.586;12.286;2022-10-16T01:46:05;100739.00;;;21.70
34807;BMP180;18310;55.586;12.286;2022-10-16T01:49:10;100739.00;;;21.70
34807;BMP180;18310;55.586;12.286;2022-10-16T01:52:23;100741.00;;;21.60
34807;BMP180;18310;55.586;12.286;2022-10-16T01:55:33;100739.00;;;21.60
34807;BMP180;18310;55.586;12.286;2022-10-16T01:58:46;100752.00;;;21.60
34807;BMP180;18310;55.586;12.286;2022-10-16T02:01:56;100750.00;;;21.50
34807;BMP180;18310;55.586;12.286;2022-10-16T02:05:12;100750.00;;;21.50
34807;BMP180;18310;55.586;12.286;2022-10-16T02:08:19;100746.00;;;21.40
34807;BMP180;18310;55.586;12.286;2022-10-16T02:11:24;100745.00;;;21.40
34807;BMP180;18310;55.586;12.286;2022-10-16T02:14:29;100741.00;;;21.40
34807;BMP180;18310;55.586;12.286;2022-10-16T02:17:33;100751.00;;;21.30
34807;BMP180;18310;55.586;12.286;2022-10-16T02:20:50;100750.00;;;21.30
34807;BMP180;18310;55.586;12.286;2022-10-16T02:24:08;100742.00;;;21.30
34807;BMP180;18310;55.586;12.286;2022-10-16T02:27:24;100736.00;;;21.30
34807;BMP180;18310;55.586;12.286;2022-10-16T02:30:35;100732.00;;;21.30
34807;BMP180;18310;55.586;12.286;2022-10-16T02:33:44;100732.00;;;21.20
34807;BMP180;18310;55.586;12.286;2022-10-16T02:36:51;100738.00;;;21.20
34807;BMP180;18310;55.586;12.286;2022-10-16T02:39:57;100736.00;;;21.20
34807;BMP180;18310;55.586;12.286;2022-10-16T02:43:04;100734.00;;;21.20
34807;BMP180;18310;55.586;12.286;2022-10-16T02:46:10;100743.00;;;21.20
34807;BMP180;18310;55.586;12.286;2022-10-16T02:49:15;100736.00;;;21.10
34807;BMP180;18310;55.586;12.286;2022-10-16T02:52:21;100736.00;;;21.10
34807;BMP180;18310;55.586;12.286;2022-10-16T02:55:26;100742.00;;;21.10
34807;BMP180;18310;55.586;12.286;2022-10-16T02:58:30;100753.00;;;21.10
34807;BMP180;18310;55.586;12.286;2022-10-16T03:01:36;100747.00;;;21.10
34807;BMP180;18310;55.586;12.286;2022-10-16T03:04:39;100749.00;;;21.00
34807;BMP180;18310;55.586;12.286;2022-10-16T03:07:43;100741.00;;;21.00
34807;BMP180;18310;55.586;12.286;2022-10-16T03:10:47;100743.00;;;21.00
34807;BMP180;18310;55.586;12.286;2022-10-16T03:13:51;100737.00;;;21.00
34807;BMP180;18310;55.586;12.286;2022-10-16T03:16:55;100733.00;;;21.00
34807;BMP180;18310;55.586;12.286;2022-10-16T03:20:00;100734.00;;;21.00
34807;BMP180;18310;55.586;12.286;2022-10-16T03:23:03;100732.00;;;21.00
34807;BMP180;18310;55.586;12.286;2022-10-16T03:26:06;100736.00;;;21.00
34807;BMP180;18310;55.586;12.286;2022-10-16T03:29:10;100748.00;;;21.00
34807;BMP180;18310;55.586;12.286;2022-10-16T03:32:15;100752.00;;;21.00
34807;BMP180;18310;55.586;12.286;2022-10-16T03:35:20;100738.00;;;21.10
34807;BMP180;18310;55.586;12.286;2022-10-16T03:38:23;100754.00;;;21.20
34807;BMP180;18310;55.586;12.286;2022-10-16T03:41:26;100753.00;;;21.30
34807;BMP180;18310;55.586;12.286;2022-10-16T03:44:31;100760.00;;;21.40
34807;BMP180;18310;55.586;12.286;2022-10-16T03:47:37;100758.00;;;21.50
34807;BMP180;18310;55.586;12.286;2022-10-16T03:50:41;100763.00;;;21.60
34807;BMP180;18310;55.586;12.286;2022-10-16T03:53:44;100783.00;;;21.70
34807;BMP180;18310;55.586;12.286;2022-10-16T03:56:48;100778.00;;;21.80
34807;BMP180;18310;55.586;12.286;2022-10-16T03:59:51;100776.00;;;21.90
34807;BMP180;18310;55.586;12.286;2022-10-16T04:02:56;100775.00;;;22.00
34807;BMP180;18310;55.586;12.286;2022-10-16T04:06:00;100772.00;;;22.00
34807;BMP180;18310;55.586;12.286;2022-10-16T04:09:04;100772.00;;;22.10
34807;BMP180;18310;55.586;12.286;2022-10-16T04:12:07;100775.00;;;22.10
34807;BMP180;18310;55.586;12.286;2022-10-16T04:15:10;100769.00;;;22.10
34807;BMP180;18310;55.586;12.286;2022-10-16T04:18:16;100778.00;;;22.10
34807;BMP180;18310;55.586;12.286;2022-10-16T04:21:20;100780.00;;;22.20
34807;BMP180;18310;55.586;12.286;2022-10-16T04:24:24;100783.00;;;22.20
34807;BMP180;18310;55.586;12.286;2022-10-16T04:27:27;100794.00;;;22.20
34807;BMP180;18310;55.586;12.286;2022-10-16T04:30:33;100798.00;;;22.20
34807;BMP180;18310;55.586;12.286;2022-10-16T04:33:37;100787.00;;;22.30
34807;BMP180;18310;55.586;12.286;2022-10-16T04:36:43;100796.00;;;22.30
34807;BMP180;18310;55.586;12.286;2022-10-16T04:39:48;100789.00;;;22.30
34807;BMP180;18310;55.586;12.286;2022-10-16T04:42:52;100788.00;;;22.30
34807;BMP180;18310;55.586;12.286;2022-10-16T04:45:55;100786.00;;;22.30
34807;BMP180;18310;55.586;12.286;2022-10-16T04:48:59;100796.00;;;22.40
34807;BMP180;18310;55.586;12.286;2022-10-16T04:52:03;100798.00;;;22.40
34807;BMP180;18310;55.586;12.286;2022-10-16T04:55:08;100793.00;;;22.40
34807;BMP180;18310;55.586;12.286;2022-10-16T04:58:14;100798.00;;;22.40
34807;BMP180;18310;55.586;12.286;2022-10-16T05:01:18;100803.00;;;22.50
34807;BMP180;18310;55.586;12.286;2022-10-16T05:04:23;100801.00;;;22.50
34807;BMP180;18310;55.586;12.286;2022-10-16T05:07:27;100803.00;;;22.50
34807;BMP180;18310;55.586;12.286;2022-10-16T05:10:30;100806.00;;;22.60
34807;BMP180;18310;55.586;12.286;2022-10-16T05:13:33;100804.00;;;22.60
34807;BMP180;18310;55.586;12.286;2022-10-16T05:16:37;100808.00;;;22.60
34807;BMP180;18310;55.586;12.286;2022-10-16T05:19:43;100805.00;;;22.60
34807;BMP180;18310;55.586;12.286;2022-10-16T05:22:48;100805.00;;;22.60
34807;BMP180;18310;55.586;12.286;2022-10-16T05:25:54;100804.00;;;22.60
34807;BMP180;18310;55.586;12.286;2022-10-16T05:29:01;100805.00;;;22.60
34807;BMP180;18310;55.586;12.286;2022-10-16T05:32:05;100812.00;;;22.60
34807;BMP180;18310;55.586;12.286;2022-10-16T05:35:09;100804.00;;;22.60
34807;BMP180;18310;55.586;12.286;2022-10-16T05:38:15;100812.00;;;22.60
34807;BMP180;18310;55.586;12.286;2022-10-16T05:41:19;100814.00;;;22.60
34807;BMP180;18310;55.586;12.286;2022-10-16T05:44:23;100815.00;;;22.60
34807;BMP180;18310;55.586;12.286;2022-10-16T05:47:27;100819.00;;;22.60
34807;BMP180;18310;55.586;12.286;2022-10-16T05:50:38;100822.00;;;22.60
34807;BMP180;18310;55.586;12.286;2022-10-16T05:53:43;100826.00;;;22.60
34807;BMP180;18310;55.586;12.286;2022-10-16T05:56:46;100818.00;;;22.60
34807;BMP180;18310;55.586;12.286;2022-10-16T05:59:50;100832.00;;;22.50
34807;BMP180;18310;55.586;12.286;2022-10-16T06:02:53;100838.00;;;22.50
34807;BMP180;18310;55.586;12.286;2022-10-16T06:05:59;100835.00;;;22.50
34807;BMP180;18310;55.586;12.286;2022-10-16T06:09:13;100839.00;;;22.50
34807;BMP180;18310;55.586;12.286;2022-10-16T06:12:17;100845.00;;;22.50
34807;BMP180;18310;55.586;12.286;2022-10-16T06:15:20;100851.00;;;22.50
34807;BMP180;18310;55.586;12.286;2022-10-16T06:18:23;100844.00;;;22.40
34807;BMP180;18310;55.586;12.286;2022-10-16T06:21:29;100848.00;;;22.30
34807;BMP180;18310;55.586;12.286;2022-10-16T06:24:33;100850.00;;;22.30
34807;BMP180;18310;55.586;12.286;2022-10-16T06:27:39;100859.00;;;22.20
34807;BMP180;18310;55.586;12.286;2022-10-16T06:30:43;100864.00;;;22.20
34807;BMP180;18310;55.586;12.286;2022-10-16T06:33:50;100874.00;;;22.10
34807;BMP180;18310;55.586;12.286;2022-10-16T06:36:56;100869.00;;;22.10
34807;BMP180;18310;55.586;12.286;2022-10-16T06:39:59;100874.00;;;22.10
34807;BMP180;18310;55.586;12.286;2022-10-16T06:43:02;100873.00;;;22.00
34807;BMP180;18310;55.586;12.286;2022-10-16T06:46:10;100866.00;;;22.00
34807;BMP180;18310;55.586;12.286;2022-10-16T06:49:14;100871.00;;;22.00
34807;BMP180;18310;55.586;12.286;2022-10-16T06:52:28;100880.00;;;22.00
34807;BMP180;18310;55.586;12.286;2022-10-16T06:55:32;100881.00;;;22.00
34807;BMP180;18310;55.586;12.286;2022-10-16T06:58:36;100888.00;;;22.00
34807;BMP180;18310;55.586;12.286;2022-10-16T07:01:40;100897.00;;;22.00
34807;BMP180;18310;55.586;12.286;2022-10-16T07:04:43;100902.00;;;22.00
34807;BMP180;18310;55.586;12.286;2022-10-16T07:07:50;100909.00;;;22.00
34807;BMP180;18310;55.586;12.286;2022-10-16T07:10:59;100913.00;;;22.10
34807;BMP180;18310;55.586;12.286;2022-10-16T07:14:03;100908.00;;;22.10
34807;BMP180;18310;55.586;12.286;2022-10-16T07:17:07;100897.00;;;22.20
34807;BMP180;18310;55.586;12.286;2022-10-16T07:20:10;100902.00;;;22.30
34807;BMP180;18310;55.586;12.286;2022-10-16T07:23:16;100915.00;;;22.40
34807;BMP180;18310;55.586;12.286;2022-10-16T07:26:19;100916.00;;;22.50
34807;BMP180;18310;55.586;12.286;2022-10-16T07:29:23;100914.00;;;22.50
34807;BMP180;18310;55.586;12.286;2022-10-16T07:32:27;100913.00;;;22.60
34807;BMP180;18310;55.586;12.286;2022-10-16T07:35:32;100909.00;;;22.80
34807;BMP180;18310;55.586;12.286;2022-10-16T07:38:38;100907.00;;;22.80
34807;BMP180;18310;55.586;12.286;2022-10-16T07:41:42;100899.00;;;22.90
34807;BMP180;18310;55.586;12.286;2022-10-16T07:44:48;100897.00;;;23.00
34807;BMP180;18310;55.586;12.286;2022-10-16T07:47:51;100900.00;;;23.10
34807;BMP180;18310;55.586;12.286;2022-10-16T07:50:58;100910.00;;;23.20
34807;BMP180;18310;55.586;12.286;2022-10-16T07:54:04;100911.00;;;23.20
34807;BMP180;18310;55.586;12.286;2022-10-16T07:57:07;100925.00;;;23.20
34807;BMP180;18310;55.586;12.286;2022-10-16T08:00:11;100932.00;;;23.30
34807;BMP180;18310;55.586;12.286;2022-10-16T08:03:15;100920.00;;;23.30
34807;BMP180;18310;55.586;12.286;2022-10-16T08:06:21;100922.00;;;23.40
34807;BMP180;18310;55.586;12.286;2022-10-16T08:09:31;100921.00;;;23.50
34807;BMP180;18310;55.586;12.286;2022-10-16T08:12:37;100930.00;;;23.70
34807;BMP180;18310;55.586;12.286;2022-10-16T08:15:40;100914.00;;;23.90
34807;BMP180;18310;55.586;12.286;2022-10-16T08:18:46;100924.00;;;24.00
34807;BMP180;18310;55.586;12.286;2022-10-16T08:21:53;100930.00;;;24.10
34807;BMP180;18310;55.586;12.286;2022-10-16T08:24:58;100923.00;;;24.10
34807;BMP180;18310;55.586;12.286;2022-10-16T08:28:05;100924.00;;;24.10
34807;BMP180;18310;55.586;12.286;2022-10-16T08:31:11;100915.00;;;24.20
34807;BMP180;18310;55.586;12.286;2022-10-16T08:34:15;100926.00;;;24.20
34807;BMP180;18310;55.586;12.286;2022-10-16T08:37:18;100929.00;;;24.20
34807;BMP180;18310;55.586;12.286;2022-10-16T08:40:26;100932.00;;;24.10
34807;BMP180;18310;55.586;12.286;2022-10-16T08:43:47;100933.00;;;24.10
34807;BMP180;18310;55.586;12.286;2022-10-16T08:47:11;100930.00;;;24.10
34807;BMP180;18310;55.586;12.286;2022-10-16T08:50:24;100932.00;;;24.20
34807;BMP180;18310;55.586;12.286;2022-10-16T08:53:38;100930.00;;;24.30
34807;BMP180;18310;55.586;12.286;2022-10-16T08:56:47;100938.00;;;24.30
34807;BMP180;18310;55.586;12.286;2022-10-16T08:59:52;100943.00;;;24.40
34807;BMP180;18310;55.586;12.286;2022-10-16T09:03:06;100942.00;;;24.50
34807;BMP180;18310;55.586;12.286;2022-10-16T09:06:29;100941.00;;;24.60
34807;BMP180;18310;55.586;12.286;2022-10-16T09:09:58;100955.00;;;24.70
34807;BMP180;18310;55.586;12.286;2022-10-16T09:13:19;100953.00;;;24.80
34807;BMP180;18310;55.586;12.286;2022-10-16T09:16:32;100953.00;;;24.80
34807;BMP180;18310;55.586;12.286;2022-10-16T09:19:44;100957.00;;;24.90
34807;BMP180;18310;55.586;12.286;2022-10-16T09:22:51;100954.00;;;25.00
34807;BMP180;18310;55.586;12.286;2022-10-16T09:26:00;100961.00;;;25.00
34807;BMP180;18310;55.586;12.286;2022-10-16T09:29:09;100953.00;;;25.00
34807;BMP180;18310;55.586;12.286;2022-10-16T09:32:18;100961.00;;;25.10
34807;BMP180;18310;55.586;12.286;2022-10-16T09:35:32;100946.00;;;25.10
34807;BMP180;18310;55.586;12.286;2022-10-16T09:38:37;100958.00;;;25.10
34807;BMP180;18310;55.586;12.286;2022-10-16T09:41:44;100943.00;;;25.00
34807;BMP180;18310;55.586;12.286;2022-10-16T09:44:51;100932.00;;;25.10
34807;BMP180;18310;55.586;12.286;2022-10-16T09:47:56;100955.00;;;25.10
34807;BMP180;18310;55.586;12.286;2022-10-16T09:51:03;100953.00;;;25.10
34807;BMP180;18310;55.586;12.286;2022-10-16T09:54:15;100954.00;;;25.30
34807;BMP180;18310;55.586;12.286;2022-10-16T09:57:21;100951.00;;;25.30
34807;BMP180;18310;55.586;12.286;2022-10-16T10:00:27;100955.00;;;25.40
34807;BMP180;18310;55.586;12.286;2022-10-16T10:03:37;100953.00;;;25.40
34807;BMP180;18310;55.586;12.286;2022-10-16T10:06:46;100950.00;;;25.40
34807;BMP180;18310;55.586;12.286;2022-10-16T10:09:50;100954.00;;;25.50
34807;BMP180;18310;55.586;12.286;2022-10-16T10:12:55;100969.00;;;25.50
34807;BMP180;18310;55.586;12.286;2022-10-16T10:16:01;100959.00;;;25.60
34807;BMP180;18310;55.586;12.286;2022-10-16T10:19:04;100959.00;;;25.60
34807;BMP180;18310;55.586;12.286;2022-10-16T10:22:27;100965.00;;;25.70
34807;BMP180;18310;55.586;12.286;2022-10-16T10:25:50;100967.00;;;25.70
34807;BMP180;18310;55.586;12.286;2022-10-16T10:29:06;100972.00;;;25.70
34807;BMP180;18310;55.586;12.286;2022-10-16T10:32:30;100966.00;;;25.70
34807;BMP180;18310;55.586;12.286;2022-10-16T10:35:48;100962.00;;;25.80
34807;BMP180;18310;55.586;12.286;2022-10-16T10:39:00;100964.00;;;25.80
34807;BMP180;18310;55.586;12.286;2022-10-16T10:42:20;100967.00;;;25.80
34807;BMP180;18310;55.586;12.286;2022-10-16T10:45:37;100969.00;;;25.80
34807;BMP180;18310;55.586;12.286;2022-10-16T10:49:16;100970.00;;;25.90
34807;BMP180;18310;55.586;12.286;2022-10-16T10:52:38;100985.00;;;25.90
34807;BMP180;18310;55.586;12.286;2022-10-16T10:55:51;100997.00;;;25.90
34807;BMP180;18310;55.586;12.286;2022-10-16T10:59:30;100989.00;;;25.90
34807;BMP180;18310;55.586;12.286;2022-10-16T11:02:41;100985.00;;;25.90
34807;BMP180;18310;55.586;12.286;2022-10-16T11:05:55;100985.00;;;26.00
34807;BMP180;18310;55.586;12.286;2022-10-16T11:09:09;100993.00;;;26.00
34807;BMP180;18310;55.586;12.286;2022-10-16T11:12:20;100990.00;;;26.10
34807;BMP180;18310;55.586;12.286;2022-10-16T11:15:34;100990.00;;;26.10
34807;BMP180;18310;55.586;12.286;2022-10-16T11:18:49;100993.00;;;26.10
34807;BMP180;18310;55.586;12.286;2022-10-16T11:22:06;101000.00;;;26.20
34807;BMP180;18310;55.586;12.286;2022-10-16T11:25:18;100996.00;;;26.10
34807;BMP180;18310;55.586;12.286;2022-10-16T11:28:29;100994.00;;;26.10
34807;BMP180;18310;55.586;12.286;2022-10-16T11:31:41;100984.00;;;26.10
34807;BMP180;18310;55.586;12.286;2022-10-16T11:34:51;100996.00;;;26.10
34807;BMP180;18310;55.586;12.286;2022-10-16T11:38:02;100986.00;;;26.10
34807;BMP180;18310;55.586;12.286;2022-10-16T11:41:20;100993.00;;;26.10
34807;BMP180;18310;55.586;12.286;2022-10-16T11:44:38;100987.00;;;26.10
34807;BMP180;18310;55.586;12.286;2022-10-16T11:47:51;100983.00;;;26.10
34807;BMP180;18310;55.586;12.286;2022-10-16T11:51:11;100983.00;;;26.00
34807;BMP180;18310;55.586;12.286;2022-10-16T11:54:30;100994.00;;;26.00
34807;BMP180;18310;55.586;12.286;2022-10-16T11:57:42;100999.00;;;26.00
34807;BMP180;18310;55.586;12.286;2022-10-16T12:00:58;100986.00;;;26.00
34807;BMP180;18310;55.586;12.286;2022-10-16T12:04:14;100993.00;;;25.90
34807;BMP180;18310;55.586;12.286;2022-10-16T12:07:28;100995.00;;;25.90
34807;BMP180;18310;55.586;12.286;2022-10-16T12:10:41;100994.00;;;26.00
34807;BMP180;18310;55.586;12.286;2022-10-16T12:13:45;101000.00;;;25.90
34807;BMP180;18310;55.586;12.286;2022-10-16T12:16:56;100997.00;;;25.90
34807;BMP180;18310;55.586;12.286;2022-10-16T12:20:24;101011.00;;;25.80
34807;BMP180;18310;55.586;12.286;2022-10-16T12:23:28;101023.00;;;25.80
34807;BMP180;18310;55.586;12.286;2022-10-16T12:26:38;101022.00;;;25.80
34807;BMP180;18310;55.586;12.286;2022-10-16T12:29:45;101024.00;;;25.80
34807;BMP180;18310;55.586;12.286;2022-10-16T12:32:54;101030.00;;;25.80
34807;BMP180;18310;55.586;12.286;2022-10-16T12:36:03;101043.00;;;25.80
34807;BMP180;18310;55.586;12.286;2022-10-16T12:39:22;101065.00;;;25.70
34807;BMP180;18310;55.586;12.286;2022-10-16T12:42:34;101067.00;;;25.70
34807;BMP180;18310;55.586;12.286;2022-10-16T12:45:38;101069.00;;;25.80
34807;BMP180;18310;55.586;12.286;2022-10-16T12:48:44;101065.00;;;25.80
34807;BMP180;18310;55.586;12.286;2022-10-16T12:52:26;101081.00;;;25.80
34807;BMP180;18310;55.586;12.286;2022-10-16T12:55:42;101090.00;;;25.80
34807;BMP180;18310;55.586;12.286;2022-10-16T12:59:04;101093.00;;;25.70
34807;BMP180;18310;55.586;12.286;2022-10-16T13:02:49;101095.00;;;25.70
34807;BMP180;18310;55.586;12.286;2022-10-16T13:06:25;101068.00;;;25.80
34807;BMP180;18310;55.586;12.286;2022-10-16T13:09:53;101089.00;;;25.90
34807;BMP180;18310;55.586;12.286;2022-10-16T13:13:33;101103.00;;;25.80
34807;BMP180;18310;55.586;12.286;2022-10-16T13:16:55;101102.00;;;25.80
34807;BMP180;18310;55.586;12.286;2022-10-16T13:20:16;101105.00;;;25.70
34807;BMP180;18310;55.586;12.286;2022-10-16T13:23:31;101120.00;;;25.70
34807;BMP180;18310;55.586;12.286;2022-10-16T13:26:46;101113.00;;;25.60
34807;BMP180;18310;55.586;12.286;2022-10-16T13:30:03;101124.00;;;25.60
34807;BMP180;18310;55.586;12.286;2022-10-16T13:33:19;101123.00;;;25.50
34807;BMP180;18310;55.586;12.286;2022-10-16T13:36:28;101133.00;;;25.50
34807;BMP180;18310;55.586;12.286;2022-10-16T13:39:32;101164.00;;;25.40
34807;BMP180;18310;55.586;12.286;2022-10-16T13:42:35;101164.00;;;25.30
34807;BMP180;18310;55.586;12.286;2022-10-16T13:45:40;101182.00;;;25.10
34807;BMP180;18310;55.586;12.286;2022-10-16T13:48:56;101181.00;;;24.90
34807;BMP180;18310;55.586;12.286;2022-10-16T13:52:00;101186.00;;;24.70
34807;BMP180;18310;55.586;12.286;2022-10-16T13:55:09;101190.00;;;24.50
34807;BMP180;18310;55.586;12.286;2022-10-16T13:58:14;101190.00;;;24.30
34807;BMP180;18310;55.586;12.286;2022-10-16T14:01:24;101197.00;;;24.20
34807;BMP180;18310;55.586;12.286;2022-10-16T14:04:39;101212.00;;;24.10
34807;BMP180;18310;55.586;12.286;2022-10-16T14:07:43;101205.00;;;24.00
34807;BMP180;18310;55.586;12.286;2022-10-16T14:10:50;101202.00;;;23.90
34807;BMP180;18310;55.586;12.286;2022-10-16T14:13:56;101214.00;;;23.80
34807;BMP180;18310;55.586;12.286;2022-10-16T14:17:02;101226.00;;;23.80
34807;BMP180;18310;55.586;12.286;2022-10-16T14:20:15;101225.00;;;23.70
34807;BMP180;18310;55.586;12.286;2022-10-16T14:23:23;101234.00;;;23.60
34807;BMP180;18310;55.586;12.286;2022-10-16T14:26:42;101234.00;;;23.50
34807;BMP180;18310;55.586;12.286;2022-10-16T14:30:15;101245.00;;;23.50
34807;BMP180;18310;55.586;12.286;2022-10-16T14:33:30;101243.00;;;23.40
34807;BMP180;18310;55.586;12.286;2022-10-16T14:36:42;101246.00;;;23.40
34807;BMP180;18310;55.586;12.286;2022-10-16T14:39:49;101254.00;;;23.30
34807;BMP180;18310;55.586;12.286;2022-10-16T14:42:53;101262.00;;;23.30
34807;BMP180;18310;55.586;12.286;2022-10-16T14:45:57;101267.00;;;23.30
34807;BMP180;18310;55.586;12.286;2022-10-16T14:49:06;101265.00;;;23.30
34807;BMP180;18310;55.586;12.286;2022-10-16T14:52:19;101267.00;;;23.20
34807;BMP180;18310;55.586;12.286;2022-10-16T14:55:23;101279.00;;;23.20
34807;BMP180;18310;55.586;12.286;2022-10-16T14:58:28;101285.00;;;23.20
34807;BMP180;18310;55.586;12.286;2022-10-16T15:01:33;101294.00;;;23.20
34807;BMP180;18310;55.586;12.286;2022-10-16T15:04:38;101290.00;;;23.20
34807;BMP180;18310;55.586;12.286;2022-10-16T15:07:45;101301.00;;;23.10
34807;BMP180;18310;55.586;12.286;2022-10-16T15:10:48;101295.00;;;23.10
34807;BMP180;18310;55.586;12.286;2022-10-16T15:13:52;101296.00;;;23.10
34807;BMP180;18310;55.586;12.286;2022-10-16T15:17:00;101302.00;;;23.10
34807;BMP180;18310;55.586;12.286;2022-10-16T15:20:04;101304.00;;;23.00
34807;BMP180;18310;55.586;12.286;2022-10-16T15:23:16;101320.00;;;23.00
34807;BMP180;18310;55.586;12.286;2022-10-16T15:26:21;101318.00;;;23.00
34807;BMP180;18310;55.586;12.286;2022-10-16T15:29:23;101328.00;;;22.90
34807;BMP180;18310;55.586;12.286;2022-10-16T15:32:28;101326.00;;;22.90
34807;BMP180;18310;55.586;12.286;2022-10-16T15:35:31;101331.00;;;22.80
34807;BMP180;18310;55.586;12.286;2022-10-16T15:38:37;101336.00;;;22.80
34807;BMP180;18310;55.586;12.286;2022-10-16T15:41:40;101365.00;;;22.80
34807;BMP180;18310;55.586;12.286;2022-10-16T15:44:45;101358.00;;;22.70
34807;BMP180;18310;55.586;12.286;2022-10-16T15:47:49;101371.00;;;22.70
34807;BMP180;18310;55.586;12.286;2022-10-16T15:50:56;101360.00;;;22.70
34807;BMP180;18310;55.586;12.286;2022-10-16T15:54:00;101367.00;;;22.60
34807;BMP180;18310;55.586;12.286;2022-10-16T15:57:07;101386.00;;;22.60
34807;BMP180;18310;55.586;12.286;2022-10-16T16:00:15;101385.00;;;22.50
34807;BMP180;18310;55.586;12.286;2022-10-16T16:03:21;101387.00;;;22.40
34807;BMP180;18310;55.586;12.286;2022-10-16T16:06:25;101390.00;;;22.40
34807;BMP180;18310;55.586;12.286;2022-10-16T16:09:31;101400.00;;;22.30
34807;BMP180;18310;55.586;12.286;2022-10-16T16:12:35;101394.00;;;22.20
34807;BMP180;18310;55.586;12.286;2022-10-16T16:15:41;101396.00;;;22.20
34807;BMP180;18310;55.586;12.286;2022-10-16T16:18:44;101408.00;;;22.10
34807;BMP180;18310;55.586;12.286;2022-10-16T16:21:49;101412.00;;;22.10
34807;BMP180;18310;55.586;12.286;2022-10-16T16:24:54;101421.00;;;22.00
34807;BMP180;18310;55.586;12.286;2022-10-16T16:27:57;101429.00;;;22.00
34807;BMP180;18310;55.586;12.286;2022-10-16T16:31:03;101419.00;;;21.90
34807;BMP180;18310;55.586;12.286;2022-10-16T16:34:06;101442.00;;;21.90
34807;BMP180;18310;55.586;12.286;2022-10-16T16:37:09;101443.00;;;21.80
34807;BMP180;18310;55.586;12.286;2022-10-16T16:40:15;101444.00;;;21.80
34807;BMP180;18310;55.586;12.286;2022-10-16T16:43:18;101456.00;;;21.70
34807;BMP180;18310;55.586;12.286;2022-10-16T16:46:22;101466.00;;;21.70
34807;BMP180;18310;55.586;12.286;2022-10-16T16:49:25;101466.00;;;21.60
34807;BMP180;18310;55.586;12.286;2022-10-16T16:52:31;101475.00;;;21.60
34807;BMP180;18310;55.586;12.286;2022-10-16T16:55:36;101484.00;;;21.50
34807;BMP180;18310;55.586;12.286;2022-10-16T16:58:40;101490.00;;;21.50
34807;BMP180;18310;55.586;12.286;2022-10-16T17:01:44;101497.00;;;21.40
34807;BMP180;18310;55.586;12.286;2022-10-16T17:04:49;101504.00;;;21.40
34807;BMP180;18310;55.586;12.286;2022-10-16T17:07:52;101500.00;;;21.30
34807;BMP180;18310;55.586;12.286;2022-10-16T17:10:58;101513.00;;;21.30
34807;BMP180;18310;55.586;12.286;2022-10-16T17:14:03;101522.00;;;21.20
34807;BMP180;18310;55.586;12.286;2022-10-16T17:17:07;101529.00;;;21.20
34807;BMP180;18310;55.586;12.286;2022-10-16T17:20:12;101551.00;;;21.10
34807;BMP180;18310;55.586;12.286;2022-10-16T17:23:17;101553.00;;;21.10
34807;BMP180;18310;55.586;12.286;2022-10-16T17:26:24;101558.00;;;21.10
34807;BMP180;18310;55.586;12.286;2022-10-16T17:29:28;101569.00;;;21.00
34807;BMP180;18310;55.586;12.286;2022-10-16T17:32:32;101577.00;;;21.00
34807;BMP180;18310;55.586;12.286;2022-10-16T17:35:37;101581.00;;;21.00